Data for 08/27/2009

Time Sea-Level Adjusted Pressure Absolute Pressure Temperature Relative Humidity Dew Point   
(mb) (inHg) (mb) (inHg) (C) (F) (%) (C) (F)
00:05 1024 30.24 853 25.19 18.1 64.6 48 7 44.5
00:10 1024 30.24 853 25.19 17.8 64 48 6.7 44
00:15 1024 30.24 853 25.19 17.7 63.8 48 6.6 43.8
00:20 1024 30.24 853 25.19 17.8 64 44 5.3 41.6
00:25 1024 30.24 853 25.19 17.9 64.2 47 6.5 43.6
00:30 1024 30.24 853 25.19 17.7 63.9 49 6.9 44.3
00:35 1024 30.24 853 25.19 17.7 63.8 46 6.1 43
00:40 1024 30.24 853 25.19 17.6 63.7 46 6.1 43
00:45 1024 30.24 853 25.19 17.6 63.6 46 5.9 42.5
00:50 1024 30.24 853 25.19 17.6 63.7 50 7.1 44.9
00:55 1024 30.24 853 25.19 17.5 63.4 49 6.7 44
01:00 1024 30.24 853 25.19 17.4 63.3 48 6.3 43.3
01:05 1024 30.24 853 25.19 17.5 63.5 47 6.2 43.2
01:10 1024 30.24 853 25.19 18 64.3 45 6.1 43
01:15 1024 30.24 854 25.22 18.2 64.8 46 6.5 43.7
01:20 1024 30.24 854 25.22 18.1 64.6 47 6.8 44.3
01:25 1024 30.24 854 25.22 17.9 64.2 45 5.7 42.3
01:30 1024 30.24 854 25.22 17.8 64.1 43 5.3 41.5
01:35 1024 30.24 854 25.22 18.1 64.6 44 5.7 42.3
01:40 1025 30.27 854 25.22 17.8 64 45 5.7 42.3
01:45 1025 30.27 854 25.22 17.7 63.8 47 6.4 43.4
01:50 1025 30.27 854 25.22 17.4 63.3 52 7.6 45.7
01:55 1025 30.27 854 25.22 17 62.7 50 6.6 43.9
02:00 1025 30.27 854 25.22 17.1 62.8 47 5.8 42.5
02:05 1025 30.27 854 25.22 16.9 62.3 49 6.3 43.3
02:10 1025 30.27 854 25.22 16.8 62.2 47 5.4 41.8
02:15 1025 30.27 854 25.22 16.8 62.2 48 5.9 42.6
02:20 1025 30.27 854 25.22 16.4 61.5 48 5.5 41.8
02:25 1025 30.27 854 25.22 16.7 62 48 5.8 42.5
02:30 1025 30.27 854 25.22 16.4 61.5 48 5.6 42.1
02:35 1025 30.27 854 25.22 16.4 61.4 50 5.9 42.7
02:40 1025 30.27 854 25.22 16.2 61.2 50 5.7 42.3
02:45 1025 30.27 854 25.22 16.2 61.2 52 6.5 43.8
02:50 1025 30.27 854 25.22 16.4 61.5 47 5.2 41.4
02:55 1025 30.27 854 25.22 16.5 61.6 47 5.1 41.2
03:00 1025 30.27 854 25.22 16.6 61.8 47 5.2 41.4
03:05 1025 30.27 854 25.22 16.5 61.8 47 5.2 41.4
03:10 1025 30.27 854 25.22 16.3 61.3 48 5.5 41.8
03:15 1025 30.27 854 25.22 16 60.9 49 5.5 41.9
03:20 1025 30.27 854 25.22 15.8 60.5 49 5.3 41.6
03:25 1025 30.27 854 25.22 16 60.7 49 5.4 41.7
03:30 1025 30.27 854 25.22 16 60.8 49 5.2 41.4
03:35 1025 30.27 854 25.22 16.1 61 46 4.6 40.2
03:40 1025 30.27 854 25.22 16.7 62 43 4.3 39.7
03:45 1025 30.27 854 25.22 16.9 62.4 46 5.4 41.8
03:50 1025 30.27 854 25.22 16.6 61.9 43 4.2 39.5
03:55 1025 30.27 855 25.25 16.9 62.4 43 4.4 40
04:00 1025 30.27 855 25.25 17 62.5 42 4.1 39.4
04:05 1025 30.27 855 25.25 17 62.6 43 4.5 40.2
04:10 1026 30.3 855 25.25 16.7 62.1 44 4.4 39.9
04:15 1026 30.3 855 25.25 16.6 61.8 47 5.2 41.3
04:20 1026 30.3 855 25.25 16.3 61.3 46 4.7 40.5
04:25 1026 30.3 855 25.25 15.9 60.6 48 5.1 41.1
04:30 1026 30.3 855 25.25 15.4 59.7 49 4.8 40.6
04:35 1026 30.3 855 25.25 15.3 59.5 48 4.5 40.1
04:40 1026 30.3 855 25.25 15.4 59.8 49 4.9 40.8
04:45 1026 30.3 855 25.25 15.4 59.6 49 4.7 40.5
04:50 1026 30.3 855 25.25 15.7 60.2 47 4.4 39.9
04:55 1026 30.3 855 25.25 15.6 60.1 48 4.7 40.4
05:00 1026 30.3 855 25.25 15.3 59.5 48 4.5 40.1
05:05 1026 30.3 855 25.25 15.3 59.6 48 4.6 40.2
05:10 1026 30.3 855 25.25 15 59 50 4.6 40.3
05:15 1026 30.3 855 25.25 15.1 59.1 48 4.3 39.7
05:20 1026 30.3 855 25.25 15.5 59.8 46 4 39.2
05:25 1026 30.3 855 25.25 15.8 60.4 45 3.8 38.9
05:30 1026 30.3 855 25.25 16 60.9 44 3.8 38.8
05:35 1026 30.3 855 25.25 16.2 61.2 44 4.1 39.3
05:40 1026 30.3 855 25.25 16.1 61 45 4.2 39.6
05:45 1026 30.3 855 25.25 15.8 60.4 44 3.5 38.3
05:50 1026 30.3 855 25.25 15.9 60.7 47 4.8 40.7
05:55 1026 30.3 855 25.25 15.1 59.2 49 4.5 40
06:00 1026 30.3 855 25.25 14.7 58.5 49 4.2 39.5
06:05 1026 30.3 855 25.25 14.5 58.2 50 4.4 39.9
06:10 1026 30.3 855 25.25 14.2 57.6 51 4.4 39.8
06:15 1026 30.3 855 25.25 14.2 57.6 50 4.1 39.4
06:20 1026 30.3 856 25.28 14.2 57.5 50 4 39.3
06:25 1026 30.3 856 25.28 14.3 57.7 49 3.8 38.8
06:30 1026 30.3 856 25.28 14.3 57.7 50 4.2 39.5
06:35 1027 30.33 856 25.28 14.1 57.4 49 3.7 38.6
06:40 1027 30.33 856 25.28 14.7 58.5 45 3 37.4
06:45 1027 30.33 856 25.28 15.3 59.5 44 3.3 38
06:50 1027 30.33 856 25.28 15.3 59.5 44 3.1 37.6
06:55 1027 30.33 856 25.28 15.1 59.1 48 4.4 39.8
07:00 1027 30.33 856 25.28 14 57.3 53 4.7 40.4
07:05 1027 30.33 856 25.28 13.5 56.4 51 3.8 38.8
07:10 1027 30.33 856 25.28 13.9 57.1 49 3.5 38.3
07:15 1027 30.33 856 25.28 14.3 57.7 48 3.4 38.1
07:20 1027 30.33 856 25.28 14.6 58.3 46 3.2 37.8
07:25 1027 30.33 856 25.28 14.9 58.9 45 3.3 38
07:30 1027 30.33 856 25.28 15.1 59.1 47 4 39.2
07:35 1027 30.33 856 25.28 14.9 58.8 49 4.3 39.8
07:40 1027 30.33 857 25.31 14.9 58.8 49 4.5 40
07:45 1027 30.33 857 25.31 15 59 48 4.3 39.8
07:50 1028 30.36 857 25.31 15.4 59.7 48 4.4 40
07:55 1028 30.36 857 25.31 15.6 60 48 4.8 40.6
08:00 1028 30.36 857 25.31 16 60.9 46 4.6 40.2
08:05 1028 30.36 857 25.31 16.1 61 48 5.1 41.2
08:10 1028 30.36 857 25.31 16.3 61.3 47 5.2 41.3
08:15 1028 30.36 857 25.31 16.7 62 48 5.7 42.3
08:20 1028 30.36 857 25.31 16.9 62.3 50 6.4 43.5
08:25 1028 30.36 857 25.31 17.1 62.8 48 6.2 43.2
08:30 1028 30.36 857 25.31 17.5 63.4 48 6.4 43.5
08:35 1028 30.36 857 25.31 17.5 63.5 46 5.9 42.6
08:40 1028 30.36 857 25.31 17.7 63.9 46 6 42.8
08:45 1028 30.36 857 25.31 18.3 65 46 6.5 43.8
08:50 1028 30.36 857 25.31 18.3 65 45 6.4 43.5
08:55 1028 30.36 857 25.31 18.3 64.9 40 4.6 40.3
09:00 1028 30.36 857 25.31 18.5 65.2 40 4.9 40.9
09:05 1028 30.36 857 25.31 18.9 66 41 5.6 42
09:10 1028 30.36 857 25.31 19.2 66.5 41 5.7 42.2
09:15 1028 30.36 857 25.31 19.2 66.5 42 6 42.8
09:20 1028 30.36 857 25.31 20 68 40 6.1 42.9
09:25 1028 30.36 857 25.31 20.6 69 40 6.8 44.3
09:30 1028 30.36 857 25.31 21.2 70.2 37 6 42.8
09:35 1028 30.36 857 25.31 21.9 71.4 36 6.3 43.3
09:40 1028 30.36 857 25.31 21.7 71.1 32 4.3 39.8
09:45 1028 30.36 857 25.31 21.9 71.4 32 4.5 40.1
09:50 1028 30.36 857 25.31 22.3 72.1 33 5.5 41.9
09:55 1028 30.36 857 25.31 22.2 71.9 32 5.1 41.1
10:00 1028 30.36 857 25.31 22.3 72.1 31 4.6 40.3
10:05 1028 30.36 857 25.31 22 71.6 32 4.6 40.3
10:10 1028 30.36 857 25.31 22.6 72.7 31 4.8 40.6
10:15 1028 30.36 857 25.31 22.8 73 30 4.5 40.2
10:20 1028 30.36 857 25.31 22.4 72.3 32 4.9 40.8
10:25 1028 30.36 857 25.31 23.5 74.4 30 5.1 41.1
10:30 1028 30.36 857 25.31 24.4 75.9 29 5.3 41.5
10:35 1028 30.36 857 25.31 25.1 77.1 27 5.1 41.1
10:40 1028 30.36 857 25.31 25.3 77.5 27 5.4 41.6
10:45 1028 30.36 857 25.31 25.4 77.8 27 5.1 41.3
10:50 1028 30.36 857 25.31 25.7 78.2 24 4 39.1
10:55 1028 30.36 857 25.31 25.5 77.9 23 3.2 37.8
11:00 1028 30.36 857 25.31 25.5 77.9 23 3.3 38
11:05 1028 30.36 857 25.31 25.7 78.2 21 2.1 35.8
11:10 1028 30.36 857 25.31 26.3 79.3 20 1.6 34.8
11:15 1028 30.36 857 25.31 26.2 79.2 20 2 35.5
11:20 1028 30.36 857 25.31 25.9 78.6 20 1.2 34.1
11:25 1028 30.36 857 25.31 25.7 78.3 21 2.3 36.1
11:30 1028 30.36 857 25.31 25.1 77.3 22 1.9 35.4
11:35 1028 30.36 857 25.31 25.2 77.4 20 1.3 34.3
11:40 1028 30.36 857 25.31 25.2 77.3 21 1.6 34.8
11:45 1028 30.36 857 25.31 25.8 78.4 21 2.2 35.9
11:50 1028 30.36 857 25.31 26.4 79.6 20 2.2 36
11:55 1028 30.36 857 25.31 27.1 80.8 20 2.8 37.1
12:00 1028 30.36 857 25.31 27.1 80.9 19 2.1 35.7
12:05 1028 30.36 857 25.31 27.5 81.6 19 2.4 36.3
12:10 1028 30.36 857 25.31 27.9 82.3 17 1.3 34.3
12:15 1028 30.36 857 25.31 28.1 82.6 15 -0.6 30.9
12:20 1028 30.36 857 25.31 28 82.3 18 1.6 34.9
12:25 1028 30.36 857 25.31 28 82.4 17 0.9 33.7
12:30 1028 30.36 857 25.31 27.9 82.2 16 0.3 32.6
12:35 1028 30.36 857 25.31 27.5 81.4 16 -0.5 31.2
12:40 1028 30.36 857 25.31 27.8 82.1 15 -0.9 30.4
12:45 1028 30.36 857 25.31 28.2 82.8 16 0.5 32.9
12:50 1028 30.36 857 25.31 27.7 81.8 17 0.9 33.6
12:55 1028 30.36 857 25.31 26.9 80.4 18 1 33.9
13:00 1028 30.36 857 25.31 27.8 82 15 -1 30.2
13:05 1028 30.36 857 25.31 28.7 83.7 17 1.2 34.2
13:10 1028 30.36 857 25.31 28.9 84 15 0.1 32.1
13:15 1028 30.36 857 25.31 28.6 83.5 14 -0.8 30.5
13:20 1028 30.36 857 25.31 28.9 83.9 14 -1.2 29.9
13:25 1028 30.36 857 25.31 28.6 83.4 14 -1 30.2
13:30 1028 30.36 857 25.31 28.5 83.3 15 -0.7 30.7
13:35 1028 30.36 857 25.31 29 84.3 13 -1.5 29.3
13:40 1028 30.36 857 25.31 27.8 82 14 -1.7 29
13:45 1028 30.36 857 25.31 28.8 83.9 14 -0.8 30.6
13:50 1028 30.36 857 25.31 28.9 84 14 -1.3 29.6
13:55 1028 30.36 857 25.31 29 84.2 14 -1.2 29.9
14:00 1028 30.36 857 25.31 28.5 83.3 15 -0.5 31.1
14:05 1028 30.36 857 25.31 28.3 82.9 14 -1.7 29
14:10 1028 30.36 857 25.31 27.9 82.1 15 -0.7 30.7
14:15 1028 30.36 857 25.31 27.5 81.5 15 -1 30.1
14:20 1028 30.36 857 25.31 28.1 82.6 14 -1.9 28.6
14:25 1028 30.36 857 25.31 27.4 81.3 14 -2.2 28
14:30 1028 30.36 857 25.31 27.6 81.8 14 -2.2 28
14:35 1028 30.36 857 25.31 28.4 83.2 13 -2.8 26.9
14:40 1028 30.36 857 25.31 27.2 81 14 -2.4 27.6
14:45 1028 30.36 857 25.31 26.7 80.1 14 -2.5 27.5
14:50 1028 30.36 857 25.31 26.8 80.3 14 -2.2 28.1
14:55 1028 30.36 857 25.31 26.8 80.3 14 -2.6 27.4
15:00 1028 30.36 857 25.31 26.6 79.9 15 -1.8 28.8
15:05 1028 30.36 857 25.31 26.9 80.4 14 -2.6 27.3
15:10 1028 30.36 857 25.31 27.2 80.9 14 -1.9 28.6
15:15 1028 30.36 857 25.31 27.2 81 15 -1.3 29.7
15:20 1028 30.36 857 25.31 27.3 81.1 15 -1.1 30
15:25 1028 30.36 857 25.31 27.6 81.6 15 -0.8 30.6
15:30 1028 30.36 857 25.31 28.1 82.6 14 -1.2 29.8
15:35 1028 30.36 857 25.31 28 82.4 15 -1.2 29.9
15:40 1028 30.36 857 25.31 27.1 80.8 15 -1.2 29.8
15:45 1028 30.36 857 25.31 26.9 80.4 15 -2 28.5
15:50 1028 30.36 857 25.31 27.3 81.1 15 -1 30.3
15:55 1028 30.36 857 25.31 27.2 81 17 0 32
16:00 1028 30.36 857 25.31 26.8 80.3 16 -0.6 30.9
16:05 1028 30.36 857 25.31 27 80.7 17 0.1 32.2
16:10 1028 30.36 857 25.31 26.9 80.5 17 0.2 32.3
16:15 1028 30.36 857 25.31 26.8 80.2 17 0 32
16:20 1028 30.36 857 25.31 26.7 80 19 1.1 34.1
16:25 1028 30.36 857 25.31 26.6 80 17 -0.4 31.4
16:30 1027 30.33 857 25.31 26.6 79.8 19 1.2 34.2
16:35 1027 30.33 857 25.31 26.5 79.7 18 0.1 32.3
16:40 1027 30.33 857 25.31 26.6 80 15 -1.5 29.3
16:45 1027 30.33 857 25.31 26.4 79.6 16 -1.5 29.2
16:50 1027 30.33 857 25.31 26.5 79.7 16 -0.8 30.5
16:55 1027 30.33 857 25.31 26.5 79.7 18 0.2 32.3
17:00 1027 30.33 857 25.31 26.5 79.7 16 -1.4 29.5
17:05 1027 30.33 857 25.31 26.4 79.6 18 0.3 32.5
17:10 1027 30.33 856 25.28 26.5 79.6 17 -0.2 31.6
17:15 1027 30.33 856 25.28 26.5 79.8 15 -1.8 28.8
17:20 1027 30.33 856 25.28 26.5 79.8 18 0.2 32.3
17:25 1027 30.33 857 25.31 26.6 79.8 18 0.4 32.7
17:30 1027 30.33 857 25.31 26.6 79.9 19 1.4 34.5
17:35 1027 30.33 856 25.28 26.4 79.6 15 -1.6 29
17:40 1027 30.33 856 25.28 26.6 79.8 18 0.4 32.6
17:45 1027 30.33 856 25.28 26.8 80.2 18 0.4 32.7
17:50 1027 30.33 856 25.28 27 80.5 18 0.8 33.5
17:55 1027 30.33 856 25.28 27.2 80.9 15 -1.1 29.9
18:00 1027 30.33 856 25.28 27.3 81.1 17 0.3 32.6
18:05 1027 30.33 856 25.28 27.2 81 17 -0.1 31.9
18:10 1027 30.33 856 25.28 27.3 81.2 17 0.3 32.5
18:15 1027 30.33 856 25.28 27.3 81.1 18 1 33.8
18:20 1027 30.33 856 25.28 27.1 80.8 16 -0.5 31.1
18:25 1027 30.33 856 25.28 27 80.6 15 -1.3 29.7
18:30 1027 30.33 856 25.28 26.9 80.4 16 -0.5 31.1
18:35 1027 30.33 856 25.28 26.7 80.1 17 0.2 32.4
18:40 1027 30.33 856 25.28 26.7 80 18 0.6 33.1
18:45 1027 30.33 856 25.28 26.6 79.8 19 1.6 34.8
18:50 1027 30.33 856 25.28 26 78.7 22 2.7 36.9
18:55 1027 30.33 856 25.28 25.7 78.2 22 2.5 36.5
19:00 1027 30.33 856 25.28 25.5 77.8 22 2.3 36.2
19:05 1027 30.33 856 25.28 25.3 77.5 23 3 37.5
19:10 1027 30.33 856 25.28 24.9 76.9 22 2.1 35.8
19:15 1027 30.33 856 25.28 24.8 76.6 22 1.9 35.5
19:20 1027 30.33 856 25.28 24.6 76.3 22 1.6 34.9
19:25 1027 30.33 856 25.28 24.5 76 21 1.1 34
19:30 1027 30.33 856 25.28 24.4 75.8 20 0.2 32.4
19:35 1027 30.33 856 25.28 24.3 75.7 20 0.1 32.2
19:40 1027 30.33 856 25.28 24.2 75.6 20 0.4 32.7
19:45 1027 30.33 856 25.28 24 75.2 21 0.4 32.7
19:50 1027 30.33 856 25.28 23.7 74.7 22 0.7 33.2
19:55 1027 30.33 856 25.28 23.5 74.3 22 1.1 33.9
20:00 1027 30.33 857 25.31 23.3 74 22 0.7 33.3
20:05 1027 30.33 857 25.31 23.2 73.7 22 0.2 32.4
20:10 1027 30.33 857 25.31 23 73.5 21 -0.2 31.6
20:15 1027 30.33 857 25.31 22.8 73.1 22 -0.1 31.9
20:20 1027 30.33 857 25.31 22.7 72.9 21 -0.5 31.1
20:25 1027 30.33 857 25.31 22.8 73 21 -0.7 30.7
20:30 1028 30.36 857 25.31 22.8 73 20 -0.9 30.3
20:35 1028 30.36 857 25.31 22.5 72.5 22 -0.1 31.8
20:40 1028 30.36 857 25.31 22.1 71.7 23 -0.1 31.8
20:45 1028 30.36 857 25.31 22 71.5 23 -0.2 31.6
20:50 1028 30.36 857 25.31 21.9 71.5 23 -0.2 31.6
20:55 1028 30.36 857 25.31 21.9 71.4 23 -0.1 31.9
21:00 1028 30.36 857 25.31 21.7 71.1 24 0.5 32.9
21:05 1028 30.36 857 25.31 21.6 70.8 23 0 32
21:10 1028 30.36 857 25.31 21.4 70.5 25 0.8 33.4
21:15 1028 30.36 857 25.31 21 69.7 24 -0.3 31.5
21:20 1028 30.36 857 25.31 21.1 70.1 24 -0.3 31.5
21:25 1028 30.36 857 25.31 21.2 70.2 24 -0.1 31.8
21:30 1028 30.36 857 25.31 21.1 70 24 -0.3 31.4
21:35 1028 30.36 857 25.31 21.2 70.1 23 -0.6 30.9
21:40 1028 30.36 857 25.31 21.3 70.4 23 -0.6 30.9
21:45 1028 30.36 857 25.31 21.2 70.2 23 -0.5 31.2
21:50 1028 30.36 857 25.31 21.1 70 24 -0.3 31.5
21:55 1028 30.36 857 25.31 21 69.8 23 -0.6 30.9
22:00 1028 30.36 857 25.31 21 69.9 23 -0.6 30.9
22:05 1028 30.36 857 25.31 20.9 69.7 24 -0.4 31.3
22:10 1028 30.36 857 25.31 20.8 69.5 23 -0.6 30.9
22:15 1028 30.36 857 25.31 20.6 69.1 24 -0.4 31.3
22:20 1028 30.36 857 25.31 20.4 68.6 24 -0.5 31.1
22:25 1028 30.36 858 25.34 20.2 68.4 25 -0.3 31.4
22:30 1028 30.36 858 25.34 20.1 68.3 25 -0.2 31.6
22:35 1028 30.36 858 25.34 20 68 25 -0.4 31.3
22:40 1028 30.36 858 25.34 19.8 67.7 25 -0.4 31.3
22:45 1029 30.39 858 25.34 19.8 67.6 25 -0.5 31
22:50 1029 30.39 858 25.34 19.7 67.5 25 -0.9 30.4
22:55 1029 30.39 858 25.34 19.7 67.5 25 -0.8 30.5
23:00 1029 30.39 858 25.34 19.5 67.1 25 -1 30.1
23:05 1029 30.39 858 25.34 19.5 67.1 24 -1.2 29.9
23:10 1029 30.39 858 25.34 19.5 67.1 25 -1.1 30
23:15 1029 30.39 858 25.34 19.5 67.1 24 -1.3 29.7
23:20 1029 30.39 858 25.34 19.6 67.3 24 -1.4 29.5
23:25 1029 30.39 858 25.34 19.6 67.3 24 -1.4 29.5
23:30 1029 30.39 858 25.34 19.6 67.3 23 -1.7 29
23:35 1029 30.39 858 25.34 19.7 67.4 24 -1.5 29.4
23:40 1029 30.39 858 25.34 19.6 67.3 24 -1.6 29.2
23:45 1029 30.39 858 25.34 19.6 67.2 24 -1.4 29.5
23:50 1029 30.39 858 25.34 19.5 67.1 24 -1.4 29.5
23:55 1029 30.39 858 25.34 19.4 67 24 -1.7 28.9
24:00 1029 30.39 858 25.34 19.5 67.1 23 -1.8 28.8